Terminal Aerodrome Forecast
Issued by NWS

Home | Current Version | Previous Version | Text Only | Print | Product List | Glossary On
Versions: 1 2 3 4 5 6 7 8 9 10 11 12 13 14
000
FTPA31 PHFO 241138
TAFHOG
TAF
PHOG 241138Z 2412/2512 10010KT P6SM FEW025 SCT035
     FM242000 07012G20KT P6SM SCT040
     FM250500 10010KT P6SM FEW025 SCT035
      AMD LTD TO VIS AND WIND TIL 241600=

USA.gov is the U.S. government's official web portal to all federal, state and local government web resources and services.